Terminal Aerodrome Forecast
Issued by NWS

Home | Current Version | Previous Version | Text Only | Print | Product List | Glossary On
Versions: 1 2 3 4 5 6 7 8 9 10 11 12 13 14 15 16
313
FTUS43 KOAX 230520
TAFSNY
TAF
KSNY 230520Z 2306/2406 22007KT P6SM SKC
     FM230900 27007KT P6SM SKC
     FM231600 15010G20KT P6SM SCT100
     FM240200 18010KT P6SM SCT100=

USA.gov is the U.S. government's official web portal to all federal, state and local government web resources and services.